Terminal Aerodrome Forecast
Issued by NWS Duluth, MN

Home | Current Version | Previous Version | Text Only | Print | Product List | Glossary On
Versions: 1 2 3 4 5 6 7 8 9 10 11 12 13 14 15
823
FTUS43 KDLH 222340
TAFDLH
TAF
KDLH 222340Z 2300/2324 23008KT P6SM SCT060
     FM230300 00000KT P6SM SKC
     FM231100 00000KT 5SM BR SCT250
     FM231300 VRB03KT P6SM FEW250
     FM232000 13007KT P6SM FEW250=

USA.gov is the U.S. government's official web portal to all federal, state and local government web resources and services.